This is the latest recevied weather packets stored in our database for station/object AA7DG. If no packets are shown the sender has not sent any weather packets the latest 10 day(s).
| Time | Temp. | Humidity | Pressure | Rain* | Wind** | Luminosity | Snow |
|---|---|---|---|---|---|---|---|
| 1777269016 | 6.11° C | 66% | 1012.9 hPa | - | - | - | - |
| 1777268401 | 6.67° C | 65% | 1012.9 hPa | - | - | - | - |
| 1777268100 | 6.67° C | 64% | 1012.9 hPa | - | - | - | - |
| 1777266900 | 7.22° C | 63% | 1012.5 hPa | - | - | - | - |
| 1777266602 | 7.22° C | 62% | 1012.5 hPa | - | - | - | - |
| 1777263611 | 8.89° C | 55% | 1012.5 hPa | - | - | - | - |
| 1777261506 | 9.44° C | 51% | 1012.2 hPa | - | - | - | - |
| 1777260600 | 9.44° C | 49% | 1011.9 hPa | - | - | - | - |
| 1777260301 | 10° C | 49% | 1011.9 hPa | - | - | - | - |
| 1777258811 | 10.56° C | 46% | 1011.7 hPa | - | - | - | - |
| 1777258201 | 11.11° C | 45% | 1011.5 hPa | - | - | - | - |
| 1777257900 | 11.11° C | 45% | 1011.5 hPa | - | - | - | - |
| 1777257606 | 11.11° C | 45% | 1011.5 hPa | - | - | - | - |
| 1777254901 | 13.33° C | 43% | 1010.8 hPa | - | - | - | - |
| 1777253406 | 12.78° C | 41% | 1010.8 hPa | - | - | - | - |
| 1777253100 | 13.33° C | 40% | 1010.8 hPa | - | - | - | - |
| 1777252801 | 13.33° C | 40% | 1010.7 hPa | - | - | - | - |
| 1777252501 | 13.33° C | 40% | 1010.5 hPa | - | - | - | - |
| 1777251906 | 13.33° C | 39% | 1010.5 hPa | - | - | - | - |
| 1777250406 | 13.33° C | 39% | 1010.2 hPa | - | - | - | - |
| 1777250110 | 13.33° C | 39% | 1010.2 hPa | - | - | - | - |
| 1777249201 | 14.44° C | 35% | 1010.1 hPa | - | - | - | - |
| 1777248301 | 16.67° C | 31% | 1009.6 hPa | - | - | - | - |
| 1777245902 | 17.78° C | 25% | 1008.8 hPa | - | - | - | - |
| 1777244101 | 17.78° C | 21% | 1008.8 hPa | - | - | - | - |
* Rain since midnight (hover to see other rain measurements)
** Current wind speed in m/s (hover to see current wind gust speed)